Airfield :
LOGIN :

Register | Disclaimer

   EN    FR    IT 

 










Legend :    VFR   Marginal VFR   IFR   Intensive IFR   Very Intensive IFR
Visi :
Ceiling :
>= 8 km
>= 3000ft
5 to 8 km
1000 to 3000 ft
1500m to 5 km
500 to 1000 ft
800 to 1500m
200 to 500 ft
< 800m
< 200 ft
Symbols :   Thunderstorms  Fog  Heavy snow  Heavy precipitations  Wind > 20 kt
SIGMETs :     Misc.  Thunderstorms  Icing  Turbulence  Mountain Waves  Volcanic Ashes







- Airport Elevation : 124 ft
- IATA code : RNS
- Download approach charts


LFRN - Rennes

CURRENT METAR :
  • 180800Z AUTO VRB03KT CAVOK 16/13 Q1025 NOSIG

EXPIRED METARs :
  • 180730Z AUTO VRB03KT 9999 ////// 14/13 Q1025
  • 180700Z AUTO 00000KT CAVOK 13/13 Q1025 NOSIG
  • 180630Z AUTO 00000KT CAVOK 12/12 Q1025 NOSIG
  • 180600Z AUTO 29001KT 9999 1300 R28L/P2000 R10R/P2000 NSC 11/11 Q1025 TEMPO 3000 MIFG
  • 180530Z AUTO 00000KT 9999 0900 R28L/P2000 R10R/1200U BCFG NSC 10/10 Q1025 TEMPO 3000 MIFG
  • 180500Z AUTO 00000KT 9999 1100 R28L/P2000 R10R/1400U NSC 10/10 Q1024 TEMPO 3000 MIFG

TAF TAF LFRN
Valid from the 18 at 06:00 until the 19 at 06:00 UTC


180500Z 1806/1906 VRB03KT 9999 SCT030
TEMPO 1806/1807 3000 MIFG
PROB30
TEMPO 1818/1821 02010KT
PROB30
TEMPO 1903/1906 3000 MIFG
ATIS : +33 2 99 67 72 50
No reported NOTAMs for that airfield.



MET'MAP, your aeronautical weather chart ! - Copyright ORBIFLY December 2007 - Disclaimer

ORBIFLY MET'MAP TEAM :

Programming & Development : Alexandra Zaïnal
Concept & Development : Baudouin d'Aumeries
Co-Development & Prog : Marc-Olivier Méhu
Technical & hardware support : Manuel Goepfert

Contact : metmap@orbifly.com




SOURCES & CREDITS :

   NOAA